Pagrindinis puslapis
METAR-TAF:

METAR-TAF

Oro uostai :

Mumbajus, Indija

platuma: 19-05-53N, ilguma: 072-50-02E, Aukštis: 4 m

Dabartinis oras

Ataskaita buvo paskelbta 39 minutes, ne 12:00 UTC
Vėjas 5 kt iš Vakarų
Temperatūra 30°C
Drėgmė 59%
Slėgis 1010 hPa
Matomumas: 2500 m
Su prošvaistėmis ne aukštis 10000 ft
dūmai

METAR: VAJJ 151200Z 26005KT 2500 FU BKN100 30/21 Q1010 NOSIG

Laikas: 18:09 (12:39 UTC)


TAF: trūkstamas

Orai ataskaitas ir orų prognozės (METAR, TAF).

turimą stotys yra geltonos ir raudonos taškus žemėlapyje.

Perkelti pele per norėdami pamatyti stoties vardą.

Tada spustelėkite, norėdami matyti oro stebėjimo ir prognozės.

Norėdami pakeisti žemėlapį: spustelėkite ant žalios mygtukų su juodo kryžiaus žemyn,; žalią mygtuką su brūkšneliu, jei norite nutolinti; arba žalių rodyklių gretimoms žemėlapius.


METAR-TAF: